sensor_id;sensor_type;location;lat;lon;timestamp;temperature;humidity
26595;DHT22;14238;49.496;8.154;2023-08-12T00:00:10;20.20;99.90
26595;DHT22;14238;49.496;8.154;2023-08-12T00:02:43;20.30;99.90
26595;DHT22;14238;49.496;8.154;2023-08-12T00:05:09;20.30;99.90
26595;DHT22;14238;49.496;8.154;2023-08-12T00:07:39;20.30;99.90
26595;DHT22;14238;49.496;8.154;2023-08-12T00:10:09;20.30;99.90
26595;DHT22;14238;49.496;8.154;2023-08-12T00:12:35;20.20;99.90
26595;DHT22;14238;49.496;8.154;2023-08-12T00:15:03;20.30;99.90
26595;DHT22;14238;49.496;8.154;2023-08-12T00:17:30;20.30;99.90
26595;DHT22;14238;49.496;8.154;2023-08-12T00:19:55;20.40;99.90
26595;DHT22;14238;49.496;8.154;2023-08-12T00:22:22;20.40;99.90
26595;DHT22;14238;49.496;8.154;2023-08-12T00:24:47;20.50;99.90
26595;DHT22;14238;49.496;8.154;2023-08-12T00:27:13;20.40;99.90
26595;DHT22;14238;49.496;8.154;2023-08-12T00:29:40;20.30;99.90
26595;DHT22;14238;49.496;8.154;2023-08-12T00:32:08;20.40;99.90
26595;DHT22;14238;49.496;8.154;2023-08-12T00:34:34;20.30;99.90
26595;DHT22;14238;49.496;8.154;2023-08-12T00:37:00;20.20;99.90
26595;DHT22;14238;49.496;8.154;2023-08-12T00:39:25;20.30;99.90
26595;DHT22;14238;49.496;8.154;2023-08-12T00:41:51;20.20;99.90
26595;DHT22;14238;49.496;8.154;2023-08-12T00:44:17;20.30;99.90
26595;DHT22;14238;49.496;8.154;2023-08-12T00:46:42;20.20;99.90
26595;DHT22;14238;49.496;8.154;2023-08-12T00:49:09;20.30;99.90
26595;DHT22;14238;49.496;8.154;2023-08-12T00:51:35;20.20;99.90
26595;DHT22;14238;49.496;8.154;2023-08-12T00:54:04;20.20;99.90
26595;DHT22;14238;49.496;8.154;2023-08-12T00:56:31;20.10;99.90
26595;DHT22;14238;49.496;8.154;2023-08-12T00:58:59;20.10;99.90
26595;DHT22;14238;49.496;8.154;2023-08-12T01:01:25;20.00;99.90
26595;DHT22;14238;49.496;8.154;2023-08-12T01:03:52;20.10;99.90
26595;DHT22;14238;49.496;8.154;2023-08-12T01:06:17;20.20;99.90
26595;DHT22;14238;49.496;8.154;2023-08-12T01:08:43;20.20;99.90
26595;DHT22;14238;49.496;8.154;2023-08-12T01:11:16;20.20;99.90
26595;DHT22;14238;49.496;8.154;2023-08-12T01:16:33;20.20;99.90
26595;DHT22;14238;49.496;8.154;2023-08-12T01:19:05;20.20;99.90
26595;DHT22;14238;49.496;8.154;2023-08-12T01:21:32;20.20;99.90
26595;DHT22;14238;49.496;8.154;2023-08-12T01:23:59;20.20;99.90
26595;DHT22;14238;49.496;8.154;2023-08-12T01:26:25;20.20;99.90
26595;DHT22;14238;49.496;8.154;2023-08-12T01:28:50;20.30;99.90
26595;DHT22;14238;49.496;8.154;2023-08-12T01:31:38;20.30;99.90
26595;DHT22;14238;49.496;8.154;2023-08-12T01:34:12;20.30;99.90
26595;DHT22;14238;49.496;8.154;2023-08-12T01:36:39;20.40;99.90
26595;DHT22;14238;49.496;8.154;2023-08-12T01:39:06;20.40;99.90
26595;DHT22;14238;49.496;8.154;2023-08-12T01:41:34;20.50;99.90
26595;DHT22;14238;49.496;8.154;2023-08-12T01:44:02;20.50;99.90
26595;DHT22;14238;49.496;8.154;2023-08-12T01:46:28;20.80;99.90
26595;DHT22;14238;49.496;8.154;2023-08-12T01:48:53;21.00;99.90
26595;DHT22;14238;49.496;8.154;2023-08-12T01:51:19;20.90;99.90
26595;DHT22;14238;49.496;8.154;2023-08-12T01:53:44;20.90;99.90
26595;DHT22;14238;49.496;8.154;2023-08-12T01:56:10;20.80;99.90
26595;DHT22;14238;49.496;8.154;2023-08-12T01:58:35;20.80;99.90
26595;DHT22;14238;49.496;8.154;2023-08-12T02:01:01;20.90;99.90
26595;DHT22;14238;49.496;8.154;2023-08-12T02:03:26;20.90;99.90
26595;DHT22;14238;49.496;8.154;2023-08-12T02:05:52;21.60;99.90
26595;DHT22;14238;49.496;8.154;2023-08-12T02:08:17;22.00;99.90
26595;DHT22;14238;49.496;8.154;2023-08-12T02:10:43;21.80;99.90
26595;DHT22;14238;49.496;8.154;2023-08-12T02:13:08;21.90;99.90
26595;DHT22;14238;49.496;8.154;2023-08-12T02:15:34;22.20;99.90
26595;DHT22;14238;49.496;8.154;2023-08-12T02:17:59;22.40;99.90
26595;DHT22;14238;49.496;8.154;2023-08-12T02:20:25;22.60;99.90
26595;DHT22;14238;49.496;8.154;2023-08-12T02:22:51;22.80;99.90
26595;DHT22;14238;49.496;8.154;2023-08-12T02:25:16;22.90;99.90
26595;DHT22;14238;49.496;8.154;2023-08-12T02:27:42;22.90;99.90
26595;DHT22;14238;49.496;8.154;2023-08-12T02:30:07;22.90;99.90
26595;DHT22;14238;49.496;8.154;2023-08-12T02:32:33;22.70;99.90
26595;DHT22;14238;49.496;8.154;2023-08-12T02:34:59;22.70;99.90
26595;DHT22;14238;49.496;8.154;2023-08-12T02:37:24;22.60;99.90
26595;DHT22;14238;49.496;8.154;2023-08-12T02:39:50;22.50;99.90
26595;DHT22;14238;49.496;8.154;2023-08-12T02:42:15;22.30;99.90
26595;DHT22;14238;49.496;8.154;2023-08-12T02:44:41;22.20;99.90
26595;DHT22;14238;49.496;8.154;2023-08-12T02:47:06;22.10;99.90
26595;DHT22;14238;49.496;8.154;2023-08-12T02:49:32;22.00;99.90
26595;DHT22;14238;49.496;8.154;2023-08-12T02:51:57;21.90;99.90
26595;DHT22;14238;49.496;8.154;2023-08-12T02:54:23;21.80;99.90
26595;DHT22;14238;49.496;8.154;2023-08-12T02:56:50;21.70;99.90
26595;DHT22;14238;49.496;8.154;2023-08-12T02:59:16;21.60;99.90
26595;DHT22;14238;49.496;8.154;2023-08-12T03:01:42;21.50;99.90
26595;DHT22;14238;49.496;8.154;2023-08-12T03:04:07;21.50;99.90
26595;DHT22;14238;49.496;8.154;2023-08-12T03:06:33;21.50;99.90
26595;DHT22;14238;49.496;8.154;2023-08-12T03:08:59;21.50;99.90
26595;DHT22;14238;49.496;8.154;2023-08-12T03:11:24;21.50;99.90
26595;DHT22;14238;49.496;8.154;2023-08-12T03:13:50;21.50;99.90
26595;DHT22;14238;49.496;8.154;2023-08-12T03:16:15;21.50;99.90
26595;DHT22;14238;49.496;8.154;2023-08-12T03:18:41;21.50;99.90
26595;DHT22;14238;49.496;8.154;2023-08-12T03:21:08;21.50;99.90
26595;DHT22;14238;49.496;8.154;2023-08-12T03:23:35;21.60;99.90
26595;DHT22;14238;49.496;8.154;2023-08-12T03:26:01;21.60;99.90
26595;DHT22;14238;49.496;8.154;2023-08-12T03:28:26;21.50;99.90
26595;DHT22;14238;49.496;8.154;2023-08-12T03:30:53;21.50;99.90
26595;DHT22;14238;49.496;8.154;2023-08-12T03:33:19;21.50;99.90
26595;DHT22;14238;49.496;8.154;2023-08-12T03:35:46;21.40;99.90
26595;DHT22;14238;49.496;8.154;2023-08-12T03:38:12;21.40;99.90
26595;DHT22;14238;49.496;8.154;2023-08-12T03:40:41;21.40;99.90
26595;DHT22;14238;49.496;8.154;2023-08-12T03:43:06;21.40;99.90
26595;DHT22;14238;49.496;8.154;2023-08-12T03:45:33;21.40;99.90
26595;DHT22;14238;49.496;8.154;2023-08-12T03:47:58;21.40;99.90
26595;DHT22;14238;49.496;8.154;2023-08-12T03:50:24;21.50;99.90
26595;DHT22;14238;49.496;8.154;2023-08-12T03:52:49;21.40;99.90
26595;DHT22;14238;49.496;8.154;2023-08-12T03:55:15;21.40;99.90
26595;DHT22;14238;49.496;8.154;2023-08-12T03:57:40;21.30;99.90
26595;DHT22;14238;49.496;8.154;2023-08-12T04:00:06;21.30;99.90
26595;DHT22;14238;49.496;8.154;2023-08-12T04:02:34;21.20;99.90
26595;DHT22;14238;49.496;8.154;2023-08-12T04:04:59;21.20;99.90
26595;DHT22;14238;49.496;8.154;2023-08-12T04:07:25;21.20;99.90
26595;DHT22;14238;49.496;8.154;2023-08-12T04:09:52;21.20;99.90
26595;DHT22;14238;49.496;8.154;2023-08-12T04:12:18;21.20;99.90
26595;DHT22;14238;49.496;8.154;2023-08-12T04:14:43;21.20;99.90
26595;DHT22;14238;49.496;8.154;2023-08-12T04:17:09;21.20;99.90
26595;DHT22;14238;49.496;8.154;2023-08-12T04:19:34;21.10;99.90
26595;DHT22;14238;49.496;8.154;2023-08-12T04:22:00;21.20;99.90
26595;DHT22;14238;49.496;8.154;2023-08-12T04:24:26;21.10;99.90
26595;DHT22;14238;49.496;8.154;2023-08-12T04:26:52;21.10;99.90
26595;DHT22;14238;49.496;8.154;2023-08-12T04:29:18;21.10;99.90
26595;DHT22;14238;49.496;8.154;2023-08-12T04:31:43;21.10;99.90
26595;DHT22;14238;49.496;8.154;2023-08-12T04:34:09;21.10;99.90
26595;DHT22;14238;49.496;8.154;2023-08-12T04:36:34;21.10;99.90
26595;DHT22;14238;49.496;8.154;2023-08-12T04:39:00;21.10;99.90
26595;DHT22;14238;49.496;8.154;2023-08-12T04:41:26;21.00;99.90
26595;DHT22;14238;49.496;8.154;2023-08-12T04:43:51;21.10;99.90
26595;DHT22;14238;49.496;8.154;2023-08-12T04:46:17;21.10;99.90
26595;DHT22;14238;49.496;8.154;2023-08-12T04:48:43;21.00;99.90
26595;DHT22;14238;49.496;8.154;2023-08-12T04:51:08;21.00;99.90
26595;DHT22;14238;49.496;8.154;2023-08-12T04:53:34;20.80;99.90
26595;DHT22;14238;49.496;8.154;2023-08-12T04:56:00;20.70;99.90
26595;DHT22;14238;49.496;8.154;2023-08-12T04:58:25;20.60;99.90
26595;DHT22;14238;49.496;8.154;2023-08-12T05:00:51;20.60;99.90
26595;DHT22;14238;49.496;8.154;2023-08-12T05:03:19;20.50;99.90
26595;DHT22;14238;49.496;8.154;2023-08-12T05:05:51;20.60;99.90
26595;DHT22;14238;49.496;8.154;2023-08-12T05:08:17;20.60;99.90
26595;DHT22;14238;49.496;8.154;2023-08-12T05:10:43;20.50;99.90
26595;DHT22;14238;49.496;8.154;2023-08-12T05:13:09;20.60;99.90
26595;DHT22;14238;49.496;8.154;2023-08-12T05:15:34;20.70;99.90
26595;DHT22;14238;49.496;8.154;2023-08-12T05:18:02;20.70;99.90
26595;DHT22;14238;49.496;8.154;2023-08-12T05:20:28;20.70;99.90
26595;DHT22;14238;49.496;8.154;2023-08-12T05:22:53;20.70;99.90
26595;DHT22;14238;49.496;8.154;2023-08-12T05:25:19;20.80;99.90
26595;DHT22;14238;49.496;8.154;2023-08-12T05:27:44;20.80;99.90
26595;DHT22;14238;49.496;8.154;2023-08-12T05:30:10;20.90;99.90
26595;DHT22;14238;49.496;8.154;2023-08-12T05:32:36;20.80;99.90
26595;DHT22;14238;49.496;8.154;2023-08-12T05:35:01;20.70;99.90
26595;DHT22;14238;49.496;8.154;2023-08-12T05:37:27;20.80;99.90
26595;DHT22;14238;49.496;8.154;2023-08-12T05:39:52;20.80;99.90
26595;DHT22;14238;49.496;8.154;2023-08-12T05:42:18;20.80;99.90
26595;DHT22;14238;49.496;8.154;2023-08-12T05:44:43;20.90;99.90
26595;DHT22;14238;49.496;8.154;2023-08-12T05:47:09;21.00;99.90
26595;DHT22;14238;49.496;8.154;2023-08-12T05:49:34;21.10;99.90
26595;DHT22;14238;49.496;8.154;2023-08-12T05:52:00;21.30;99.90
26595;DHT22;14238;49.496;8.154;2023-08-12T05:54:25;21.40;99.90
26595;DHT22;14238;49.496;8.154;2023-08-12T05:56:51;21.70;99.90
26595;DHT22;14238;49.496;8.154;2023-08-12T05:59:16;21.80;99.90
26595;DHT22;14238;49.496;8.154;2023-08-12T06:01:42;21.90;99.90
26595;DHT22;14238;49.496;8.154;2023-08-12T06:04:07;22.00;99.90
26595;DHT22;14238;49.496;8.154;2023-08-12T06:06:33;22.20;99.90
26595;DHT22;14238;49.496;8.154;2023-08-12T06:08:58;22.20;99.90
26595;DHT22;14238;49.496;8.154;2023-08-12T06:11:24;22.30;99.90
26595;DHT22;14238;49.496;8.154;2023-08-12T06:13:50;22.30;99.90
26595;DHT22;14238;49.496;8.154;2023-08-12T06:16:15;22.20;99.90
26595;DHT22;14238;49.496;8.154;2023-08-12T06:18:41;22.20;99.90
26595;DHT22;14238;49.496;8.154;2023-08-12T06:21:06;22.20;99.90
26595;DHT22;14238;49.496;8.154;2023-08-12T06:23:32;22.30;99.90
26595;DHT22;14238;49.496;8.154;2023-08-12T06:25:57;22.20;99.90
26595;DHT22;14238;49.496;8.154;2023-08-12T06:28:23;22.20;99.90
26595;DHT22;14238;49.496;8.154;2023-08-12T06:30:48;22.10;99.90
26595;DHT22;14238;49.496;8.154;2023-08-12T06:33:14;22.10;99.90
26595;DHT22;14238;49.496;8.154;2023-08-12T06:35:41;22.20;99.90
26595;DHT22;14238;49.496;8.154;2023-08-12T06:38:06;22.10;99.90
26595;DHT22;14238;49.496;8.154;2023-08-12T06:40:32;22.20;99.90
26595;DHT22;14238;49.496;8.154;2023-08-12T06:42:57;22.30;99.90
26595;DHT22;14238;49.496;8.154;2023-08-12T06:45:23;22.40;99.90
26595;DHT22;14238;49.496;8.154;2023-08-12T06:47:48;22.40;99.90
26595;DHT22;14238;49.496;8.154;2023-08-12T06:50:14;22.40;99.90
26595;DHT22;14238;49.496;8.154;2023-08-12T06:52:39;22.40;99.90
26595;DHT22;14238;49.496;8.154;2023-08-12T06:55:05;22.40;99.90
26595;DHT22;14238;49.496;8.154;2023-08-12T06:57:31;22.40;99.90
26595;DHT22;14238;49.496;8.154;2023-08-12T06:59:57;22.40;99.90
26595;DHT22;14238;49.496;8.154;2023-08-12T07:02:22;22.30;99.90
26595;DHT22;14238;49.496;8.154;2023-08-12T07:04:48;22.50;99.90
26595;DHT22;14238;49.496;8.154;2023-08-12T07:07:13;22.50;99.90
26595;DHT22;14238;49.496;8.154;2023-08-12T07:09:39;22.50;99.90
26595;DHT22;14238;49.496;8.154;2023-08-12T07:12:05;22.40;99.90
26595;DHT22;14238;49.496;8.154;2023-08-12T07:14:30;22.50;99.90
26595;DHT22;14238;49.496;8.154;2023-08-12T07:16:56;22.60;99.90
26595;DHT22;14238;49.496;8.154;2023-08-12T07:19:22;22.60;99.90
26595;DHT22;14238;49.496;8.154;2023-08-12T07:21:47;22.70;99.90
26595;DHT22;14238;49.496;8.154;2023-08-12T07:24:13;22.90;99.90
26595;DHT22;14238;49.496;8.154;2023-08-12T07:26:39;23.10;99.90
26595;DHT22;14238;49.496;8.154;2023-08-12T07:29:04;23.30;99.90
26595;DHT22;14238;49.496;8.154;2023-08-12T07:31:30;23.10;99.90
26595;DHT22;14238;49.496;8.154;2023-08-12T07:33:55;23.20;99.90
26595;DHT22;14238;49.496;8.154;2023-08-12T07:36:21;23.30;99.90
26595;DHT22;14238;49.496;8.154;2023-08-12T07:38:46;23.40;99.90
26595;DHT22;14238;49.496;8.154;2023-08-12T07:41:12;23.40;99.90
26595;DHT22;14238;49.496;8.154;2023-08-12T07:43:37;23.40;99.90
26595;DHT22;14238;49.496;8.154;2023-08-12T07:46:03;23.60;99.90
26595;DHT22;14238;49.496;8.154;2023-08-12T07:48:29;23.70;99.90
26595;DHT22;14238;49.496;8.154;2023-08-12T07:50:59;23.70;99.90
26595;DHT22;14238;49.496;8.154;2023-08-12T07:53:25;23.60;99.90
26595;DHT22;14238;49.496;8.154;2023-08-12T07:55:51;23.60;99.90
26595;DHT22;14238;49.496;8.154;2023-08-12T07:58:17;23.70;99.90
26595;DHT22;14238;49.496;8.154;2023-08-12T08:00:42;23.90;99.90
26595;DHT22;14238;49.496;8.154;2023-08-12T08:03:08;23.80;99.90
26595;DHT22;14238;49.496;8.154;2023-08-12T08:05:34;23.70;99.90
26595;DHT22;14238;49.496;8.154;2023-08-12T08:07:59;23.80;99.90
26595;DHT22;14238;49.496;8.154;2023-08-12T08:10:25;24.10;99.90
26595;DHT22;14238;49.496;8.154;2023-08-12T08:12:50;24.60;99.90
26595;DHT22;14238;49.496;8.154;2023-08-12T08:15:16;24.80;99.90
26595;DHT22;14238;49.496;8.154;2023-08-12T08:17:41;24.90;99.90
26595;DHT22;14238;49.496;8.154;2023-08-12T08:20:07;25.10;99.90
26595;DHT22;14238;49.496;8.154;2023-08-12T08:22:33;24.90;99.90
26595;DHT22;14238;49.496;8.154;2023-08-12T08:24:59;24.80;99.90
26595;DHT22;14238;49.496;8.154;2023-08-12T08:27:24;24.70;99.90
26595;DHT22;14238;49.496;8.154;2023-08-12T08:29:50;24.60;99.90
26595;DHT22;14238;49.496;8.154;2023-08-12T08:32:16;24.50;99.90
26595;DHT22;14238;49.496;8.154;2023-08-12T08:34:42;24.60;99.90
26595;DHT22;14238;49.496;8.154;2023-08-12T08:37:07;24.60;99.90
26595;DHT22;14238;49.496;8.154;2023-08-12T08:39:33;24.30;99.90
26595;DHT22;14238;49.496;8.154;2023-08-12T08:41:59;24.50;99.90
26595;DHT22;14238;49.496;8.154;2023-08-12T08:44:28;24.30;99.90
26595;DHT22;14238;49.496;8.154;2023-08-12T08:46:54;24.60;99.90
26595;DHT22;14238;49.496;8.154;2023-08-12T08:49:21;24.80;99.90
26595;DHT22;14238;49.496;8.154;2023-08-12T08:51:48;24.90;99.90
26595;DHT22;14238;49.496;8.154;2023-08-12T08:54:15;24.80;99.90
26595;DHT22;14238;49.496;8.154;2023-08-12T08:56:41;25.10;99.90
26595;DHT22;14238;49.496;8.154;2023-08-12T08:59:07;25.70;99.90
26595;DHT22;14238;49.496;8.154;2023-08-12T09:01:32;26.20;99.90
26595;DHT22;14238;49.496;8.154;2023-08-12T09:04:01;26.70;99.90
26595;DHT22;14238;49.496;8.154;2023-08-12T09:06:29;27.10;99.90
26595;DHT22;14238;49.496;8.154;2023-08-12T09:08:55;27.00;99.90
26595;DHT22;14238;49.496;8.154;2023-08-12T09:11:21;26.60;99.90
26595;DHT22;14238;49.496;8.154;2023-08-12T09:13:47;27.50;99.90
26595;DHT22;14238;49.496;8.154;2023-08-12T09:16:14;27.90;99.90
26595;DHT22;14238;49.496;8.154;2023-08-12T09:18:42;27.50;99.90
26595;DHT22;14238;49.496;8.154;2023-08-12T09:21:08;27.10;99.90
26595;DHT22;14238;49.496;8.154;2023-08-12T09:23:36;26.80;99.90
26595;DHT22;14238;49.496;8.154;2023-08-12T09:26:02;26.50;99.90
26595;DHT22;14238;49.496;8.154;2023-08-12T09:28:29;26.40;99.90
26595;DHT22;14238;49.496;8.154;2023-08-12T09:30:54;26.00;99.90
26595;DHT22;14238;49.496;8.154;2023-08-12T09:33:25;25.70;99.90
26595;DHT22;14238;49.496;8.154;2023-08-12T09:35:52;25.80;99.90
26595;DHT22;14238;49.496;8.154;2023-08-12T09:38:17;25.50;99.90
26595;DHT22;14238;49.496;8.154;2023-08-12T09:40:43;26.60;99.90
26595;DHT22;14238;49.496;8.154;2023-08-12T09:43:11;26.50;99.90
26595;DHT22;14238;49.496;8.154;2023-08-12T09:45:37;26.30;99.90
26595;DHT22;14238;49.496;8.154;2023-08-12T09:48:02;26.10;99.90
26595;DHT22;14238;49.496;8.154;2023-08-12T09:50:28;26.00;99.90
26595;DHT22;14238;49.496;8.154;2023-08-12T09:52:55;26.20;99.90
26595;DHT22;14238;49.496;8.154;2023-08-12T09:55:23;26.20;99.90
26595;DHT22;14238;49.496;8.154;2023-08-12T09:57:51;26.30;99.90
26595;DHT22;14238;49.496;8.154;2023-08-12T10:00:21;26.40;99.90
26595;DHT22;14238;49.496;8.154;2023-08-12T10:02:49;26.40;99.90
26595;DHT22;14238;49.496;8.154;2023-08-12T10:05:21;26.30;99.90
26595;DHT22;14238;49.496;8.154;2023-08-12T10:07:47;26.00;99.90
26595;DHT22;14238;49.496;8.154;2023-08-12T10:10:14;25.70;99.90
26595;DHT22;14238;49.496;8.154;2023-08-12T10:12:41;25.20;99.90
26595;DHT22;14238;49.496;8.154;2023-08-12T10:15:07;24.90;99.90
26595;DHT22;14238;49.496;8.154;2023-08-12T10:17:34;24.70;99.90
26595;DHT22;14238;49.496;8.154;2023-08-12T10:20:07;24.40;99.90
26595;DHT22;14238;49.496;8.154;2023-08-12T10:22:35;24.20;99.90
26595;DHT22;14238;49.496;8.154;2023-08-12T10:25:02;24.00;99.90
26595;DHT22;14238;49.496;8.154;2023-08-12T10:27:29;23.90;99.90
26595;DHT22;14238;49.496;8.154;2023-08-12T10:29:58;23.90;99.90
26595;DHT22;14238;49.496;8.154;2023-08-12T10:32:24;23.60;99.90
26595;DHT22;14238;49.496;8.154;2023-08-12T10:34:58;23.50;99.90
26595;DHT22;14238;49.496;8.154;2023-08-12T10:37:31;23.30;99.90
26595;DHT22;14238;49.496;8.154;2023-08-12T10:39:57;23.10;99.90
26595;DHT22;14238;49.496;8.154;2023-08-12T10:42:45;22.80;99.90
26595;DHT22;14238;49.496;8.154;2023-08-12T10:45:12;22.70;99.90
26595;DHT22;14238;49.496;8.154;2023-08-12T10:47:43;22.70;99.90
26595;DHT22;14238;49.496;8.154;2023-08-12T10:50:25;22.60;99.90
26595;DHT22;14238;49.496;8.154;2023-08-12T10:52:52;22.60;99.90
26595;DHT22;14238;49.496;8.154;2023-08-12T10:55:27;22.50;99.90
26595;DHT22;14238;49.496;8.154;2023-08-12T10:57:54;22.50;99.90
26595;DHT22;14238;49.496;8.154;2023-08-12T11:00:20;22.40;99.90
26595;DHT22;14238;49.496;8.154;2023-08-12T11:02:50;22.10;99.90
26595;DHT22;14238;49.496;8.154;2023-08-12T11:05:17;21.80;99.90
26595;DHT22;14238;49.496;8.154;2023-08-12T11:10:23;21.40;99.90
26595;DHT22;14238;49.496;8.154;2023-08-12T11:12:57;21.40;99.90
26595;DHT22;14238;49.496;8.154;2023-08-12T11:15:42;21.20;99.90
26595;DHT22;14238;49.496;8.154;2023-08-12T11:18:20;21.20;99.90
26595;DHT22;14238;49.496;8.154;2023-08-12T11:20:48;21.20;99.90
26595;DHT22;14238;49.496;8.154;2023-08-12T11:23:14;21.10;99.90
26595;DHT22;14238;49.496;8.154;2023-08-12T11:25:42;21.20;99.90
26595;DHT22;14238;49.496;8.154;2023-08-12T11:28:08;21.30;99.90
26595;DHT22;14238;49.496;8.154;2023-08-12T11:30:34;21.30;99.90
26595;DHT22;14238;49.496;8.154;2023-08-12T11:33:00;21.40;99.90
26595;DHT22;14238;49.496;8.154;2023-08-12T11:35:27;21.50;99.90
26595;DHT22;14238;49.496;8.154;2023-08-12T11:37:55;21.70;99.90
26595;DHT22;14238;49.496;8.154;2023-08-12T11:40:22;21.70;99.90
26595;DHT22;14238;49.496;8.154;2023-08-12T11:42:49;21.80;99.90
26595;DHT22;14238;49.496;8.154;2023-08-12T11:45:17;21.70;99.90
26595;DHT22;14238;49.496;8.154;2023-08-12T11:47:43;21.70;99.90
26595;DHT22;14238;49.496;8.154;2023-08-12T11:50:10;21.60;99.90
26595;DHT22;14238;49.496;8.154;2023-08-12T11:52:37;21.70;99.90
26595;DHT22;14238;49.496;8.154;2023-08-12T11:55:03;21.80;99.90
26595;DHT22;14238;49.496;8.154;2023-08-12T11:57:30;21.80;99.90
26595;DHT22;14238;49.496;8.154;2023-08-12T12:00:00;21.90;99.90
26595;DHT22;14238;49.496;8.154;2023-08-12T12:02:27;22.10;99.90
26595;DHT22;14238;49.496;8.154;2023-08-12T12:04:53;22.30;99.90
26595;DHT22;14238;49.496;8.154;2023-08-12T12:07:24;22.60;99.90
26595;DHT22;14238;49.496;8.154;2023-08-12T12:09:51;22.80;99.90
26595;DHT22;14238;49.496;8.154;2023-08-12T12:12:17;23.10;99.90
26595;DHT22;14238;49.496;8.154;2023-08-12T12:14:43;23.10;99.90
26595;DHT22;14238;49.496;8.154;2023-08-12T12:17:09;24.00;99.90
26595;DHT22;14238;49.496;8.154;2023-08-12T12:19:35;23.90;99.90
26595;DHT22;14238;49.496;8.154;2023-08-12T12:22:03;23.70;99.90
26595;DHT22;14238;49.496;8.154;2023-08-12T12:24:30;23.60;99.90
26595;DHT22;14238;49.496;8.154;2023-08-12T12:26:56;23.50;99.90
26595;DHT22;14238;49.496;8.154;2023-08-12T12:29:21;23.60;99.90
26595;DHT22;14238;49.496;8.154;2023-08-12T12:31:47;23.80;99.90
26595;DHT22;14238;49.496;8.154;2023-08-12T12:34:13;23.90;99.90
26595;DHT22;14238;49.496;8.154;2023-08-12T12:36:40;24.00;99.90
26595;DHT22;14238;49.496;8.154;2023-08-12T12:39:06;24.30;99.90
26595;DHT22;14238;49.496;8.154;2023-08-12T12:41:32;24.40;99.90
26595;DHT22;14238;49.496;8.154;2023-08-12T12:44:00;24.30;99.90
26595;DHT22;14238;49.496;8.154;2023-08-12T12:46:26;24.40;99.90
26595;DHT22;14238;49.496;8.154;2023-08-12T12:48:52;24.50;99.90
26595;DHT22;14238;49.496;8.154;2023-08-12T12:51:18;24.60;99.90
26595;DHT22;14238;49.496;8.154;2023-08-12T12:53:43;24.60;99.90
26595;DHT22;14238;49.496;8.154;2023-08-12T12:56:09;24.80;99.90
26595;DHT22;14238;49.496;8.154;2023-08-12T12:58:37;24.70;99.90
26595;DHT22;14238;49.496;8.154;2023-08-12T13:01:04;25.20;99.90
26595;DHT22;14238;49.496;8.154;2023-08-12T13:03:30;26.00;99.90
26595;DHT22;14238;49.496;8.154;2023-08-12T13:05:56;26.30;99.90
26595;DHT22;14238;49.496;8.154;2023-08-12T13:08:22;26.80;99.90
26595;DHT22;14238;49.496;8.154;2023-08-12T13:10:48;26.10;99.90
26595;DHT22;14238;49.496;8.154;2023-08-12T13:13:14;26.40;99.90
26595;DHT22;14238;49.496;8.154;2023-08-12T13:15:44;26.50;99.90
26595;DHT22;14238;49.496;8.154;2023-08-12T13:18:11;26.80;99.90
26595;DHT22;14238;49.496;8.154;2023-08-12T13:20:37;26.80;99.90
26595;DHT22;14238;49.496;8.154;2023-08-12T13:23:03;27.00;99.90
26595;DHT22;14238;49.496;8.154;2023-08-12T13:25:32;26.80;99.90
26595;DHT22;14238;49.496;8.154;2023-08-12T13:28:03;26.20;99.90
26595;DHT22;14238;49.496;8.154;2023-08-12T13:30:29;25.80;99.90
26595;DHT22;14238;49.496;8.154;2023-08-12T13:32:55;25.80;99.90
26595;DHT22;14238;49.496;8.154;2023-08-12T13:35:21;25.80;99.90
26595;DHT22;14238;49.496;8.154;2023-08-12T13:37:46;26.30;99.90
26595;DHT22;14238;49.496;8.154;2023-08-12T13:40:12;26.60;99.90
26595;DHT22;14238;49.496;8.154;2023-08-12T13:42:38;26.40;99.90
26595;DHT22;14238;49.496;8.154;2023-08-12T13:45:04;26.70;99.90
26595;DHT22;14238;49.496;8.154;2023-08-12T13:47:30;27.00;99.90
26595;DHT22;14238;49.496;8.154;2023-08-12T13:49:56;27.00;99.90
26595;DHT22;14238;49.496;8.154;2023-08-12T13:52:21;26.60;99.90
26595;DHT22;14238;49.496;8.154;2023-08-12T13:54:47;26.70;99.90
26595;DHT22;14238;49.496;8.154;2023-08-12T13:57:13;26.40;99.90
26595;DHT22;14238;49.496;8.154;2023-08-12T13:59:38;26.70;99.90
26595;DHT22;14238;49.496;8.154;2023-08-12T14:02:06;26.60;99.90
26595;DHT22;14238;49.496;8.154;2023-08-12T14:04:31;27.30;99.90
26595;DHT22;14238;49.496;8.154;2023-08-12T14:06:57;28.20;99.90
26595;DHT22;14238;49.496;8.154;2023-08-12T14:09:22;28.00;99.90
26595;DHT22;14238;49.496;8.154;2023-08-12T14:11:48;27.30;99.90
26595;DHT22;14238;49.496;8.154;2023-08-12T14:14:13;27.10;99.90
26595;DHT22;14238;49.496;8.154;2023-08-12T14:16:39;26.50;99.90
26595;DHT22;14238;49.496;8.154;2023-08-12T14:19:04;26.20;99.90
26595;DHT22;14238;49.496;8.154;2023-08-12T14:21:30;25.90;99.90
26595;DHT22;14238;49.496;8.154;2023-08-12T14:23:55;25.60;99.90
26595;DHT22;14238;49.496;8.154;2023-08-12T14:26:21;25.30;99.90
26595;DHT22;14238;49.496;8.154;2023-08-12T14:28:46;25.30;99.90
26595;DHT22;14238;49.496;8.154;2023-08-12T14:31:12;25.20;99.90
26595;DHT22;14238;49.496;8.154;2023-08-12T14:33:37;25.20;99.90
26595;DHT22;14238;49.496;8.154;2023-08-12T14:36:04;25.20;99.90
26595;DHT22;14238;49.496;8.154;2023-08-12T14:38:29;25.40;99.90
26595;DHT22;14238;49.496;8.154;2023-08-12T14:40:55;25.70;99.90
26595;DHT22;14238;49.496;8.154;2023-08-12T14:43:21;25.80;99.90
26595;DHT22;14238;49.496;8.154;2023-08-12T14:45:46;26.30;99.90
26595;DHT22;14238;49.496;8.154;2023-08-12T14:48:12;26.60;99.90
26595;DHT22;14238;49.496;8.154;2023-08-12T14:50:40;26.50;99.90
26595;DHT22;14238;49.496;8.154;2023-08-12T14:53:06;26.30;99.90
26595;DHT22;14238;49.496;8.154;2023-08-12T14:55:31;26.10;99.90
26595;DHT22;14238;49.496;8.154;2023-08-12T14:57:57;25.80;99.90
26595;DHT22;14238;49.496;8.154;2023-08-12T15:00:22;26.10;99.90
26595;DHT22;14238;49.496;8.154;2023-08-12T15:02:48;26.50;99.90
26595;DHT22;14238;49.496;8.154;2023-08-12T15:05:13;26.80;99.90
26595;DHT22;14238;49.496;8.154;2023-08-12T15:07:39;27.10;99.90
26595;DHT22;14238;49.496;8.154;2023-08-12T15:10:05;27.30;99.90
26595;DHT22;14238;49.496;8.154;2023-08-12T15:12:31;27.20;99.90
26595;DHT22;14238;49.496;8.154;2023-08-12T15:14:56;26.80;99.90
26595;DHT22;14238;49.496;8.154;2023-08-12T15:17:22;26.80;99.90
26595;DHT22;14238;49.496;8.154;2023-08-12T15:19:48;26.80;99.90
26595;DHT22;14238;49.496;8.154;2023-08-12T15:22:14;26.90;99.90
26595;DHT22;14238;49.496;8.154;2023-08-12T15:24:40;26.90;99.90
26595;DHT22;14238;49.496;8.154;2023-08-12T15:27:05;27.10;99.90
26595;DHT22;14238;49.496;8.154;2023-08-12T15:29:31;27.20;99.90